Time;durP1;ratioP1;P1;durP2;ratioP2;P2;SDS_P1;SDS_P2;PMS_P1;PMS_P2;Temp;Humidity;BMP_temperature;BMP_pressure;BME280_temperature;BME280_humidity;BME280_pressure;Samples;Min_cycle;Max_cycle;Signal;HPM_P1;HPM_P2
2023/08/20 00:00:22;;;;;;;7.88;4.10;;;24.90;99.90;;;;;;5003900;28;20042;-83
2023/08/20 00:02:55;;;;;;;7.53;4.10;;;24.90;99.90;;;;;;5002289;28;20122;-82
2023/08/20 00:05:22;;;;;;;5.57;4.35;;;24.80;99.90;;;;;;4997919;28;20386;-82
2023/08/20 00:07:49;;;;;;;7.85;5.20;;;24.80;99.90;;;;;;4995247;28;20243;-82
2023/08/20 00:10:15;;;;;;;8.13;4.32;;;24.80;99.90;;;;;;4997648;28;20054;-82
2023/08/20 00:12:42;;;;;;;7.13;4.70;;;24.80;99.90;;;;;;4988977;28;20085;-82
2023/08/20 00:15:09;;;;;;;9.23;4.30;;;24.70;99.90;;;;;;5002859;28;20050;-82
2023/08/20 00:17:38;;;;;;;8.52;4.65;;;24.70;99.90;;;;;;5000175;28;20106;-82
2023/08/20 00:20:12;;;;;;;10.43;5.18;;;24.70;99.90;;;;;;5000428;28;20047;-82
2023/08/20 00:22:42;;;;;;;7.63;4.70;;;24.70;99.90;;;;;;4993289;28;20050;-82
2023/08/20 00:25:09;;;;;;;10.63;4.85;;;24.60;99.90;;;;;;4995841;28;20137;-82
2023/08/20 00:27:36;;;;;;;7.15;4.72;;;24.60;99.90;;;;;;4997214;28;20046;-82
2023/08/20 00:30:04;;;;;;;6.50;5.35;;;24.60;99.90;;;;;;5019910;28;20050;-82
2023/08/20 00:32:30;;;;;;;10.68;4.90;;;24.60;99.90;;;;;;5001455;28;20054;-82
2023/08/20 00:34:57;;;;;;;9.02;4.72;;;24.50;99.90;;;;;;4998530;28;20053;-82
2023/08/20 00:37:25;;;;;;;7.28;4.68;;;24.50;99.90;;;;;;4996617;28;20073;-83
2023/08/20 00:39:52;;;;;;;6.00;4.50;;;24.50;99.90;;;;;;4997996;28;20058;-83
2023/08/20 00:42:19;;;;;;;5.18;4.50;;;24.50;99.90;;;;;;4997994;28;20038;-83
2023/08/20 00:44:46;;;;;;;6.32;4.47;;;24.50;99.90;;;;;;5003769;28;20043;-82
2023/08/20 00:47:13;;;;;;;8.43;5.32;;;24.50;99.90;;;;;;5004089;28;20493;-82
2023/08/20 00:49:41;;;;;;;8.88;4.93;;;24.50;99.90;;;;;;4994983;28;20042;-83
2023/08/20 00:52:10;;;;;;;6.18;4.30;;;24.50;99.90;;;;;;4996036;28;20097;-82
2023/08/20 00:54:38;;;;;;;7.07;4.95;;;24.50;99.90;;;;;;4995925;28;20047;-83
2023/08/20 00:57:06;;;;;;;8.50;4.88;;;24.40;99.90;;;;;;4992279;28;20183;-81
2023/08/20 00:59:34;;;;;;;6.95;4.78;;;24.40;99.90;;;;;;5000557;28;20054;-83
2023/08/20 01:02:01;;;;;;;9.65;5.00;;;24.40;99.90;;;;;;5000958;28;20565;-83
2023/08/20 01:04:29;;;;;;;7.50;4.75;;;24.40;99.90;;;;;;4997107;28;20051;-81
2023/08/20 01:07:21;;;;;;;6.70;4.95;;;24.40;99.90;;;;;;4992864;28;20050;-82
2023/08/20 01:10:03;;;;;;;6.57;4.60;;;24.30;99.90;;;;;;4996391;28;20070;-83
2023/08/20 01:12:31;;;;;;;8.15;4.88;;;24.30;99.90;;;;;;4993264;28;20038;-82
2023/08/20 01:14:58;;;;;;;10.25;5.07;;;24.30;99.90;;;;;;4999971;28;20046;-82
2023/08/20 01:17:25;;;;;;;7.30;5.50;;;24.30;99.90;;;;;;4999227;28;20104;-82
2023/08/20 01:19:52;;;;;;;7.38;4.95;;;24.30;99.90;;;;;;4994673;28;20078;-83
2023/08/20 01:22:40;;;;;;;9.25;5.65;;;24.20;99.90;;;;;;4992015;28;20497;-82
2023/08/20 01:25:32;;;;;;;8.95;5.15;;;24.20;99.90;;;;;;4994588;28;20046;-82
2023/08/20 01:28:25;;;;;;;9.77;5.18;;;24.20;99.90;;;;;;5001409;28;20042;-83
2023/08/20 01:30:54;;;;;;;8.05;4.72;;;24.10;99.90;;;;;;4999022;28;20047;-83
2023/08/20 01:33:21;;;;;;;8.57;5.75;;;24.10;99.90;;;;;;4997020;28;20077;-82
2023/08/20 01:35:48;;;;;;;9.30;4.80;;;24.00;99.90;;;;;;5006051;28;20042;-82
2023/08/20 01:38:15;;;;;;;11.05;4.80;;;24.00;99.90;;;;;;4995792;28;20418;-81
2023/08/20 01:40:41;;;;;;;9.95;5.20;;;24.00;99.90;;;;;;4990447;28;20051;-82
2023/08/20 01:43:08;;;;;;;8.20;4.75;;;24.00;99.90;;;;;;5003645;28;20051;-82
2023/08/20 01:45:35;;;;;;;7.55;5.22;;;23.90;99.90;;;;;;4995905;28;20443;-82
2023/08/20 01:48:03;;;;;;;7.50;5.38;;;23.90;99.90;;;;;;4998103;28;20387;-82
2023/08/20 01:50:30;;;;;;;9.32;4.68;;;23.80;99.90;;;;;;4991098;28;20132;-82
2023/08/20 01:52:57;;;;;;;6.63;5.30;;;23.80;99.90;;;;;;4998500;28;20077;-82
2023/08/20 01:55:24;;;;;;;7.60;5.25;;;23.80;99.90;;;;;;5008033;28;20075;-82
2023/08/20 01:57:51;;;;;;;6.75;5.22;;;23.80;99.90;;;;;;5001122;28;20061;-83
2023/08/20 02:00:17;;;;;;;8.52;5.80;;;23.80;99.90;;;;;;4998164;28;20061;-82
2023/08/20 02:02:44;;;;;;;7.40;4.93;;;23.70;99.90;;;;;;4996011;28;20038;-82
2023/08/20 02:05:11;;;;;;;6.47;4.63;;;23.60;99.90;;;;;;4993002;28;20087;-82
2023/08/20 02:07:38;;;;;;;9.07;5.13;;;23.50;99.90;;;;;;4991113;28;20050;-82
2023/08/20 02:10:05;;;;;;;8.93;5.13;;;23.60;99.90;;;;;;4993106;28;20524;-82
2023/08/20 02:12:32;;;;;;;10.98;5.13;;;23.50;99.90;;;;;;5001550;28;20077;-83
2023/08/20 02:14:59;;;;;;;7.05;4.95;;;23.50;99.90;;;;;;4994991;28;20046;-82
2023/08/20 02:17:25;;;;;;;7.60;5.10;;;23.50;99.90;;;;;;4996708;28;20045;-82
2023/08/20 02:19:52;;;;;;;7.97;5.63;;;23.50;99.90;;;;;;4992347;28;20055;-82
2023/08/20 02:22:20;;;;;;;8.02;6.10;;;23.60;99.90;;;;;;4991577;28;20073;-82
2023/08/20 02:24:47;;;;;;;10.73;6.35;;;23.50;99.90;;;;;;4997366;28;20043;-82
2023/08/20 02:27:14;;;;;;;6.70;5.57;;;23.50;99.90;;;;;;5004290;28;20086;-82
2023/08/20 02:29:41;;;;;;;8.63;5.65;;;23.50;99.90;;;;;;5003113;28;20043;-82
2023/08/20 02:32:07;;;;;;;10.32;5.40;;;23.50;99.90;;;;;;4995673;28;20051;-83
2023/08/20 02:34:34;;;;;;;12.90;6.25;;;23.50;99.90;;;;;;4992106;28;20481;-83
2023/08/20 02:37:01;;;;;;;9.82;5.72;;;23.50;99.90;;;;;;4987858;28;20062;-82
2023/08/20 02:39:27;;;;;;;8.50;5.90;;;23.60;99.90;;;;;;4996620;28;20050;-82
2023/08/20 02:41:54;;;;;;;7.10;5.07;;;23.50;99.90;;;;;;4999322;28;20484;-82
2023/08/20 02:44:21;;;;;;;8.95;5.30;;;23.50;99.90;;;;;;4991962;28;20068;-82
2023/08/20 02:46:48;;;;;;;8.15;5.82;;;23.40;99.90;;;;;;4992198;28;20046;-83
2023/08/20 02:49:14;;;;;;;9.85;5.53;;;23.40;99.90;;;;;;4995943;28;20430;-82
2023/08/20 02:51:43;;;;;;;9.63;5.95;;;23.40;99.90;;;;;;4990590;28;20093;-82
2023/08/20 02:54:10;;;;;;;8.55;5.25;;;23.50;99.90;;;;;;4999265;28;20050;-82
2023/08/20 02:56:36;;;;;;;8.73;6.25;;;23.40;99.90;;;;;;4999513;28;20038;-82
2023/08/20 02:59:03;;;;;;;8.88;5.38;;;23.50;99.90;;;;;;4995137;28;20097;-82
2023/08/20 03:01:30;;;;;;;11.02;5.63;;;23.50;99.90;;;;;;4993617;28;20042;-82
2023/08/20 03:03:57;;;;;;;8.10;5.63;;;23.50;99.90;;;;;;4994010;28;20138;-82
2023/08/20 03:06:23;;;;;;;20.83;7.07;;;23.50;99.90;;;;;;4988640;28;20450;-83
2023/08/20 03:08:50;;;;;;;9.18;6.03;;;23.50;99.90;;;;;;4998742;28;20054;-82
2023/08/20 03:11:17;;;;;;;7.85;6.00;;;23.50;99.90;;;;;;5003451;28;20484;-82
2023/08/20 03:13:44;;;;;;;9.02;5.53;;;23.60;99.90;;;;;;4997225;28;20097;-82
2023/08/20 03:16:11;;;;;;;9.68;6.07;;;23.50;99.90;;;;;;4994161;28;20047;-82
2023/08/20 03:18:38;;;;;;;9.90;6.00;;;23.50;99.90;;;;;;4994366;28;20584;-82
2023/08/20 03:21:05;;;;;;;7.47;5.60;;;23.50;99.90;;;;;;4987675;28;20050;-82
2023/08/20 03:23:31;;;;;;;8.05;5.70;;;23.40;99.90;;;;;;4999766;28;20406;-82
2023/08/20 03:25:59;;;;;;;7.22;5.47;;;23.40;99.90;;;;;;4996718;28;20058;-82
2023/08/20 03:28:25;;;;;;;10.27;5.40;;;23.50;99.90;;;;;;5005170;28;20045;-82
2023/08/20 03:30:52;;;;;;;8.65;5.75;;;23.40;99.90;;;;;;4990512;28;20046;-82
2023/08/20 03:33:19;;;;;;;15.25;6.05;;;23.40;99.90;;;;;;4996691;28;20080;-82
2023/08/20 03:35:46;;;;;;;7.50;5.20;;;23.50;99.90;;;;;;4986263;28;20047;-83
2023/08/20 03:38:12;;;;;;;8.93;5.68;;;23.40;99.90;;;;;;5000601;28;20046;-83
2023/08/20 03:40:39;;;;;;;7.47;5.10;;;23.40;99.90;;;;;;5001290;28;20043;-83
2023/08/20 03:43:06;;;;;;;9.18;5.35;;;23.40;99.90;;;;;;4997891;28;20117;-82
2023/08/20 03:45:33;;;;;;;7.25;5.07;;;23.40;99.90;;;;;;4990718;28;20054;-82
2023/08/20 03:47:59;;;;;;;8.57;5.43;;;23.40;99.90;;;;;;5001140;28;20078;-83
2023/08/20 03:50:26;;;;;;;6.00;5.40;;;23.40;99.90;;;;;;4995614;28;20074;-82
2023/08/20 03:52:53;;;;;;;7.85;5.50;;;23.40;99.90;;;;;;5007356;28;20043;-82
2023/08/20 03:55:20;;;;;;;5.65;5.07;;;23.40;99.90;;;;;;5007944;28;20030;-82
2023/08/20 03:57:47;;;;;;;8.18;5.53;;;23.40;99.90;;;;;;5007013;28;20038;-82
2023/08/20 04:00:14;;;;;;;7.25;5.47;;;23.30;99.90;;;;;;4991288;28;20066;-83
2023/08/20 04:02:40;;;;;;;7.40;5.20;;;23.40;99.90;;;;;;4994396;28;20057;-83
2023/08/20 04:05:07;;;;;;;9.90;5.85;;;23.40;99.90;;;;;;4985902;28;20064;-83
2023/08/20 04:07:34;;;;;;;9.07;5.57;;;23.40;99.90;;;;;;4995785;28;20052;-82
2023/08/20 04:10:02;;;;;;;7.72;5.35;;;23.30;99.90;;;;;;4996322;28;20046;-83
2023/08/20 04:12:29;;;;;;;8.93;5.50;;;23.40;99.90;;;;;;4997491;28;20480;-83
2023/08/20 04:14:55;;;;;;;8.90;5.53;;;23.40;99.90;;;;;;4987736;28;20488;-83
2023/08/20 04:17:22;;;;;;;6.57;5.78;;;23.40;99.90;;;;;;4994940;28;20041;-82
2023/08/20 04:19:49;;;;;;;8.57;5.50;;;23.50;99.90;;;;;;4990627;28;20549;-82
2023/08/20 04:22:15;;;;;;;7.88;6.15;;;23.40;99.90;;;;;;5004932;28;20057;-81
2023/08/20 04:24:42;;;;;;;7.55;5.68;;;23.40;99.90;;;;;;4997158;28;20047;-83
2023/08/20 04:27:09;;;;;;;9.38;5.20;;;23.40;99.90;;;;;;4998757;28;20060;-82
2023/08/20 04:29:36;;;;;;;6.43;5.10;;;23.40;99.90;;;;;;4992092;28;20050;-82
2023/08/20 04:32:02;;;;;;;7.22;5.53;;;23.40;99.90;;;;;;4994199;28;20047;-82
2023/08/20 04:34:29;;;;;;;7.60;5.93;;;23.40;99.90;;;;;;4995625;28;20117;-81
2023/08/20 04:36:56;;;;;;;9.95;5.55;;;23.40;99.90;;;;;;4999413;28;20047;-82
2023/08/20 04:39:23;;;;;;;10.88;5.88;;;23.40;99.90;;;;;;4999103;28;20042;-82
2023/08/20 04:41:50;;;;;;;10.65;5.93;;;23.40;99.90;;;;;;4997455;28;20067;-83
2023/08/20 04:44:16;;;;;;;9.85;5.47;;;23.40;99.90;;;;;;4994098;28;20284;-82
2023/08/20 04:46:43;;;;;;;15.32;6.20;;;23.40;99.90;;;;;;4991539;28;20058;-82
2023/08/20 04:49:10;;;;;;;8.30;5.50;;;23.30;99.90;;;;;;4994410;28;20085;-82
2023/08/20 04:51:37;;;;;;;12.05;6.00;;;23.30;99.90;;;;;;5004865;28;20411;-83
2023/08/20 04:54:04;;;;;;;5.95;5.28;;;23.30;99.90;;;;;;4998142;28;20046;-82
2023/08/20 04:56:30;;;;;;;9.07;6.10;;;23.30;99.90;;;;;;4998401;28;20063;-82
2023/08/20 04:58:57;;;;;;;7.25;5.85;;;23.30;99.90;;;;;;4992335;28;20109;-83
2023/08/20 05:01:24;;;;;;;9.20;6.68;;;23.30;99.90;;;;;;4992517;28;20049;-83
2023/08/20 05:03:51;;;;;;;8.57;5.85;;;23.30;99.90;;;;;;4992584;28;20062;-83
2023/08/20 05:06:17;;;;;;;9.68;5.35;;;23.30;99.90;;;;;;5003329;28;20057;-83
2023/08/20 05:08:44;;;;;;;12.90;6.25;;;23.30;99.90;;;;;;4994748;28;20078;-82
2023/08/20 05:11:11;;;;;;;8.48;5.45;;;23.30;99.90;;;;;;4996158;28;20402;-83
2023/08/20 05:13:37;;;;;;;7.30;5.13;;;23.30;99.90;;;;;;4991293;28;20050;-83
2023/08/20 05:16:04;;;;;;;6.75;6.00;;;23.30;99.90;;;;;;4992834;28;20803;-82
2023/08/20 05:18:31;;;;;;;8.38;5.70;;;23.30;99.90;;;;;;4995497;28;20042;-81
2023/08/20 05:20:57;;;;;;;9.80;5.72;;;23.30;99.90;;;;;;4999248;28;20064;-82
2023/08/20 05:23:24;;;;;;;6.20;5.32;;;23.30;99.90;;;;;;4998913;28;20042;-83
2023/08/20 05:25:51;;;;;;;6.65;5.80;;;23.30;99.90;;;;;;4995332;28;20043;-83
2023/08/20 05:28:18;;;;;;;11.18;6.00;;;23.30;99.90;;;;;;5010116;28;20082;-82
2023/08/20 05:30:56;;;;;;;12.90;6.40;;;23.30;99.90;;;;;;4989510;28;20053;-83
2023/08/20 05:33:23;;;;;;;8.93;6.03;;;23.30;99.90;;;;;;4996723;28;20053;-82
2023/08/20 05:35:50;;;;;;;10.57;5.60;;;23.30;99.90;;;;;;4999684;28;20047;-82
2023/08/20 05:38:17;;;;;;;10.52;5.80;;;23.30;99.90;;;;;;4997835;28;20097;-82
2023/08/20 05:40:44;;;;;;;8.43;5.28;;;23.40;99.90;;;;;;4993104;28;20046;-82
2023/08/20 05:43:11;;;;;;;8.35;6.22;;;23.40;99.90;;;;;;4996986;28;20050;-82
2023/08/20 05:45:37;;;;;;;6.60;5.50;;;23.40;99.90;;;;;;4990303;28;20564;-83
2023/08/20 05:48:04;;;;;;;11.48;6.07;;;23.40;99.90;;;;;;4999118;28;20058;-83
2023/08/20 05:50:31;;;;;;;10.02;6.45;;;23.40;99.90;;;;;;5002833;28;20042;-82
2023/08/20 05:52:58;;;;;;;8.73;6.00;;;23.40;99.90;;;;;;4994126;28;20098;-82
2023/08/20 05:55:25;;;;;;;10.40;6.10;;;23.40;99.90;;;;;;4995636;28;20046;-82
2023/08/20 05:57:51;;;;;;;8.75;6.18;;;23.50;99.90;;;;;;4993826;28;20050;-82
2023/08/20 06:00:18;;;;;;;9.70;5.40;;;23.50;99.90;;;;;;4990726;28;20054;-82
2023/08/20 06:02:45;;;;;;;8.50;5.80;;;23.50;99.90;;;;;;5000799;28;20046;-82
2023/08/20 06:05:11;;;;;;;7.40;5.72;;;23.50;99.90;;;;;;4996775;28;20150;-82
2023/08/20 06:07:39;;;;;;;7.65;5.47;;;23.60;99.90;;;;;;4996712;28;20109;-82
2023/08/20 06:10:07;;;;;;;7.10;5.50;;;23.60;99.90;;;;;;4990040;28;20050;-82
2023/08/20 06:12:34;;;;;;;11.02;5.97;;;23.60;99.90;;;;;;4996384;28;20039;-82
2023/08/20 06:15:01;;;;;;;6.30;5.70;;;23.70;99.90;;;;;;4986503;28;20413;-82
2023/08/20 06:17:28;;;;;;;8.95;5.35;;;23.70;99.90;;;;;;5002131;28;20464;-82
2023/08/20 06:19:54;;;;;;;6.82;5.53;;;23.70;99.90;;;;;;5001870;28;20058;-83
2023/08/20 06:22:21;;;;;;;9.82;5.80;;;23.80;99.90;;;;;;5006744;28;20058;-82
2023/08/20 06:24:48;;;;;;;7.90;6.00;;;23.80;99.90;;;;;;4990455;28;20075;-82
2023/08/20 06:27:14;;;;;;;8.40;6.15;;;23.90;99.90;;;;;;4996166;28;20113;-83
2023/08/20 06:29:41;;;;;;;9.57;6.18;;;24.00;99.90;;;;;;4986022;28;20047;-83
2023/08/20 06:32:08;;;;;;;11.80;6.00;;;24.00;99.90;;;;;;5000629;28;20050;-83
2023/08/20 06:34:36;;;;;;;6.63;5.95;;;24.10;99.90;;;;;;4998333;28;20062;-82
2023/08/20 06:37:03;;;;;;;7.63;5.68;;;24.10;99.90;;;;;;4996969;28;20043;-83
2023/08/20 06:39:29;;;;;;;11.48;6.28;;;24.20;99.90;;;;;;4991097;28;20046;-83
2023/08/20 06:41:56;;;;;;;10.27;5.57;;;24.30;99.90;;;;;;4995440;28;20054;-83
2023/08/20 06:44:23;;;;;;;11.05;6.25;;;24.40;99.90;;;;;;4987841;28;20054;-84
2023/08/20 06:46:50;;;;;;;7.28;5.50;;;24.40;99.90;;;;;;4996009;28;20074;-83
2023/08/20 06:49:16;;;;;;;9.70;6.72;;;24.50;99.90;;;;;;4997085;28;20572;-82
2023/08/20 06:51:43;;;;;;;8.27;5.82;;;24.50;99.90;;;;;;4996895;28;20042;-82
2023/08/20 06:54:10;;;;;;;8.77;6.50;;;24.60;99.90;;;;;;4989989;28;20051;-83
2023/08/20 06:56:36;;;;;;;7.25;6.40;;;24.60;99.90;;;;;;4990866;28;20050;-83
2023/08/20 06:59:03;;;;;;;10.32;6.75;;;24.70;99.90;;;;;;4996087;28;20042;-82
2023/08/20 07:01:30;;;;;;;9.55;7.50;;;24.70;99.90;;;;;;5003298;28;20042;-83
2023/08/20 07:03:57;;;;;;;9.90;7.30;;;24.80;99.90;;;;;;4991658;28;20145;-82
2023/08/20 07:06:24;;;;;;;11.05;6.38;;;24.80;99.90;;;;;;4996760;28;20047;-83
2023/08/20 07:08:51;;;;;;;10.05;7.28;;;24.80;99.90;;;;;;4992816;28;20074;-82
2023/08/20 07:11:18;;;;;;;8.10;6.30;;;24.90;99.90;;;;;;4993036;28;20043;-82
2023/08/20 07:13:44;;;;;;;8.20;6.72;;;25.00;99.90;;;;;;4988373;28;20106;-83
2023/08/20 07:16:11;;;;;;;11.68;7.45;;;25.10;99.90;;;;;;4998281;28;20051;-83
2023/08/20 07:18:38;;;;;;;9.05;6.90;;;25.20;99.90;;;;;;4997006;28;20049;-83
2023/08/20 07:21:05;;;;;;;9.68;6.75;;;25.20;99.90;;;;;;4995846;28;20050;-83
2023/08/20 07:23:32;;;;;;;7.70;6.50;;;25.30;99.90;;;;;;4992237;28;20045;-83
2023/08/20 07:26:10;;;;;;;7.80;6.82;;;25.30;99.90;;;;;;4993431;28;20047;-83
2023/08/20 07:31:27;;;;;;;9.85;7.32;;;25.40;99.90;;;;;;5001906;28;20054;-83
2023/08/20 07:33:55;;;;;;;10.25;7.30;;;25.40;99.90;;;;;;4996327;28;20051;-83
2023/08/20 07:36:24;;;;;;;10.40;7.43;;;25.40;99.90;;;;;;4999903;28;20119;-82
2023/08/20 07:38:52;;;;;;;13.55;8.05;;;25.40;99.90;;;;;;4988103;28;20047;-82
2023/08/20 07:41:19;;;;;;;12.68;7.25;;;25.50;99.90;;;;;;4996523;28;20110;-83
2023/08/20 07:43:47;;;;;;;9.15;7.82;;;25.50;99.90;;;;;;4991708;28;20050;-82
2023/08/20 07:46:15;;;;;;;9.93;8.07;;;25.40;99.90;;;;;;5000621;28;20050;-83
2023/08/20 07:48:42;;;;;;;8.27;7.20;;;25.50;99.90;;;;;;4994723;28;20046;-83
2023/08/20 07:51:08;;;;;;;11.80;6.97;;;25.50;99.90;;;;;;4996384;28;20106;-82
2023/08/20 07:53:35;;;;;;;10.32;7.28;;;25.50;99.90;;;;;;4994347;28;20553;-82
2023/08/20 07:56:02;;;;;;;7.35;6.65;;;25.50;99.90;;;;;;4999352;28;20051;-83
2023/08/20 07:58:29;;;;;;;10.80;7.25;;;25.50;99.90;;;;;;5001387;28;20053;-83
2023/08/20 08:00:57;;;;;;;9.18;6.97;;;25.60;99.90;;;;;;5002588;28;20055;-82
2023/08/20 08:03:26;;;;;;;10.85;7.53;;;25.60;99.90;;;;;;5000437;28;20115;-82
2023/08/20 08:05:54;;;;;;;7.95;6.75;;;25.60;99.90;;;;;;4999889;28;20062;-83
2023/08/20 08:08:21;;;;;;;10.13;6.50;;;25.60;99.90;;;;;;4994659;28;20055;-83
2023/08/20 08:10:48;;;;;;;9.88;6.78;;;25.70;99.90;;;;;;4997432;28;20049;-83
2023/08/20 08:13:18;;;;;;;15.02;7.43;;;25.70;99.90;;;;;;4999522;28;20050;-83
2023/08/20 08:15:45;;;;;;;10.55;8.43;;;25.70;99.90;;;;;;5008484;28;20077;-83
2023/08/20 08:18:12;;;;;;;9.30;7.15;;;25.70;99.90;;;;;;4997393;28;20050;-83
2023/08/20 08:20:39;;;;;;;11.77;8.38;;;25.70;99.90;;;;;;5000301;28;20057;-82
2023/08/20 08:23:06;;;;;;;9.60;7.28;;;25.70;99.90;;;;;;5007398;28;20046;-83
2023/08/20 08:25:33;;;;;;;12.88;7.43;;;25.70;99.90;;;;;;4996905;28;20092;-82
2023/08/20 08:28:00;;;;;;;9.30;7.75;;;25.80;99.90;;;;;;5002425;28;20560;-83
2023/08/20 08:30:29;;;;;;;10.07;7.25;;;25.80;99.90;;;;;;5002609;28;20046;-83
2023/08/20 08:32:56;;;;;;;9.23;7.22;;;25.80;99.90;;;;;;5001066;28;20047;-83
2023/08/20 08:35:23;;;;;;;10.15;7.50;;;25.80;99.90;;;;;;5000568;28;20046;-83
2023/08/20 08:37:49;;;;;;;8.35;6.75;;;25.90;99.90;;;;;;4992544;28;20047;-82
2023/08/20 08:40:16;;;;;;;11.55;7.85;;;25.90;99.90;;;;;;5009757;28;20054;-83
2023/08/20 08:42:49;;;;;;;10.55;7.63;;;25.90;99.90;;;;;;5002046;28;20089;-83
2023/08/20 08:45:20;;;;;;;9.27;6.97;;;26.00;99.90;;;;;;4999828;28;20101;-83
2023/08/20 08:47:47;;;;;;;11.50;7.25;;;26.00;99.90;;;;;;4995507;28;20128;-83
2023/08/20 08:50:15;;;;;;;10.52;8.00;;;26.10;99.90;;;;;;4997525;28;20046;-82
2023/08/20 08:52:44;;;;;;;11.70;7.53;;;26.10;99.90;;;;;;4993991;28;20043;-83
2023/08/20 08:55:11;;;;;;;11.88;7.53;;;26.10;99.90;;;;;;4997275;28;20050;-83
2023/08/20 08:57:38;;;;;;;10.77;7.65;;;26.10;99.90;;;;;;5000257;28;20045;-82
2023/08/20 09:00:05;;;;;;;9.63;6.55;;;26.10;99.90;;;;;;5002701;28;20117;-83
2023/08/20 09:02:32;;;;;;;15.68;8.00;;;26.20;99.90;;;;;;5017029;28;20722;-83
2023/08/20 09:04:59;;;;;;;10.05;6.63;;;26.20;99.90;;;;;;5000074;28;20051;-82
2023/08/20 09:07:26;;;;;;;8.43;6.47;;;26.30;99.90;;;;;;5000113;28;20114;-83
2023/08/20 09:09:59;;;;;;;11.52;6.78;;;26.30;99.90;;;;;;4994784;28;20093;-82
2023/08/20 09:12:27;;;;;;;13.43;6.25;;;26.40;99.90;;;;;;5002971;28;20115;-83
2023/08/20 09:14:57;;;;;;;9.05;6.13;;;26.40;99.90;;;;;;5000533;28;20061;-82
2023/08/20 09:17:27;;;;;;;9.52;6.65;;;26.50;99.90;;;;;;4996514;28;20106;-82
2023/08/20 09:19:58;;;;;;;8.80;6.65;;;26.50;99.90;;;;;;4995489;28;20057;-81
2023/08/20 09:22:26;;;;;;;8.68;6.72;;;26.60;99.90;;;;;;5009969;28;20055;-82
2023/08/20 09:24:57;;;;;;;10.30;6.43;;;26.60;99.90;;;;;;4993351;28;20050;-82
2023/08/20 09:27:24;;;;;;;9.63;6.32;;;26.70;99.90;;;;;;5003004;28;20046;-82
2023/08/20 09:29:57;;;;;;;7.90;5.72;;;26.80;99.90;;;;;;5000948;28;20133;-82
2023/08/20 09:32:26;;;;;;;7.32;5.50;;;26.80;99.90;;;;;;4998993;28;20081;-82
2023/08/20 09:34:55;;;;;;;10.43;6.38;;;26.80;99.90;;;;;;4994550;28;20050;-83
2023/08/20 09:37:24;;;;;;;8.57;6.25;;;26.80;99.90;;;;;;4994623;28;20058;-82
2023/08/20 09:39:51;;;;;;;10.05;5.70;;;26.90;99.90;;;;;;4993734;28;20050;-82
2023/08/20 09:42:18;;;;;;;6.47;5.88;;;26.90;99.90;;;;;;5001010;28;20133;-82
2023/08/20 09:44:46;;;;;;;9.15;5.53;;;26.90;99.90;;;;;;4999325;28;20046;-82
2023/08/20 09:47:18;;;;;;;7.80;5.47;;;27.00;99.90;;;;;;4994875;28;20047;-82
2023/08/20 09:49:47;;;;;;;9.35;5.82;;;27.00;99.90;;;;;;5001490;28;20059;-82
2023/08/20 09:52:31;;;;;;;8.55;6.05;;;27.00;99.90;;;;;;5008732;28;20081;-82
2023/08/20 09:55:09;;;;;;;9.85;5.35;;;27.10;99.90;;;;;;5006889;28;20050;-82
2023/08/20 09:57:39;;;;;;;8.55;5.47;;;27.10;99.90;;;;;;5001854;28;20061;-83
2023/08/20 10:00:12;;;;;;;9.35;5.38;;;27.20;99.90;;;;;;4999753;28;20058;-82
2023/08/20 10:02:40;;;;;;;7.50;5.82;;;27.20;99.90;;;;;;4997118;28;20100;-83
2023/08/20 10:05:11;;;;;;;8.35;5.95;;;27.20;99.90;;;;;;4998318;28;20051;-82
2023/08/20 10:07:38;;;;;;;8.90;5.60;;;27.30;99.90;;;;;;4991717;28;20053;-82
2023/08/20 10:10:07;;;;;;;8.88;5.15;;;27.30;99.90;;;;;;4998386;28;20125;-83
2023/08/20 10:12:35;;;;;;;10.00;5.75;;;27.30;99.90;;;;;;5000396;28;20050;-82
2023/08/20 10:15:03;;;;;;;7.18;4.72;;;27.30;99.90;;;;;;4997867;28;20046;-83
2023/08/20 10:17:33;;;;;;;8.73;5.18;;;27.40;99.90;;;;;;4993012;28;20138;-83
2023/08/20 10:20:04;;;;;;;8.68;5.45;;;27.50;99.90;;;;;;4996684;28;20043;-82
2023/08/20 10:22:33;;;;;;;8.70;5.07;;;27.50;99.90;;;;;;4992995;28;20139;-82
2023/08/20 10:25:02;;;;;;;7.72;4.40;;;27.50;99.90;;;;;;5005502;28;20051;-82
2023/08/20 10:27:35;;;;;;;6.85;5.20;;;27.60;99.90;;;;;;4999725;28;20058;-82
2023/08/20 10:30:11;;;;;;;10.85;5.63;;;27.70;99.90;;;;;;4998977;28;20042;-83
2023/08/20 10:32:46;;;;;;;7.05;4.80;;;27.80;99.90;;;;;;4992676;28;20046;-83
2023/08/20 10:35:16;;;;;;;9.77;5.18;;;27.90;99.90;;;;;;4998953;28;20100;-83
2023/08/20 10:38:18;;;;;;;9.02;5.13;;;27.90;99.90;;;;;;4993909;28;20042;-82
2023/08/20 10:40:49;;;;;;;8.60;6.05;;;28.00;99.90;;;;;;4938545;29;20051;-82
2023/08/20 10:43:23;;;;;;;;;;;28.10;99.90;;;;;;4981874;28;20062;-83
2023/08/20 10:46:05;;;;;;;6.07;4.80;;;28.20;99.90;;;;;;4996088;28;19922;-83
2023/08/20 10:48:38;;;;;;;5.88;5.28;;;28.30;99.90;;;;;;4992772;28;20508;-82
2023/08/20 10:51:13;;;;;;;7.75;4.85;;;28.30;99.90;;;;;;4995732;28;20047;-82
2023/08/20 10:53:42;;;;;;;5.35;4.70;;;28.40;99.90;;;;;;5006055;28;20050;-82
2023/08/20 10:56:16;;;;;;;7.05;4.80;;;28.40;99.90;;;;;;4996888;28;20054;-83
2023/08/20 10:58:47;;;;;;;11.63;5.22;;;28.40;99.90;;;;;;4997657;28;20077;-82
2023/08/20 11:01:20;;;;;;;8.80;4.90;;;28.50;99.90;;;;;;4991550;28;20090;-83
2023/08/20 11:03:50;;;;;;;6.70;5.10;;;28.60;99.90;;;;;;4993888;28;20066;-83
2023/08/20 11:06:18;;;;;;;10.70;5.22;;;28.60;99.90;;;;;;4998500;28;20473;-83
2023/08/20 11:08:45;;;;;;;9.05;5.32;;;28.70;99.90;;;;;;5004818;28;20044;-83
2023/08/20 11:11:12;;;;;;;7.57;4.50;;;28.80;99.90;;;;;;4995562;28;20076;-82
2023/08/20 11:13:40;;;;;;;9.18;4.47;;;28.90;99.90;;;;;;4998550;28;20072;-83
2023/08/20 11:16:07;;;;;;;6.78;5.05;;;28.90;99.90;;;;;;4992966;28;20067;-83
2023/08/20 11:18:35;;;;;;;7.82;4.65;;;28.90;99.90;;;;;;4991194;28;20053;-83
2023/08/20 11:21:02;;;;;;;5.47;4.85;;;28.90;99.90;;;;;;4997595;28;20050;-83
2023/08/20 11:23:30;;;;;;;5.90;5.05;;;29.00;99.90;;;;;;5003021;28;20054;-82
2023/08/20 11:25:57;;;;;;;5.10;4.32;;;28.90;99.90;;;;;;4996156;28;20059;-82
2023/08/20 11:28:25;;;;;;;6.85;4.90;;;29.00;99.90;;;;;;4996293;28;20059;-83
2023/08/20 11:30:53;;;;;;;9.85;4.78;;;29.00;99.90;;;;;;4995740;28;20047;-82
2023/08/20 11:33:21;;;;;;;10.20;4.70;;;29.00;99.90;;;;;;4995806;28;20086;-83
2023/08/20 11:35:48;;;;;;;11.18;4.50;;;29.00;99.90;;;;;;5001188;28;20046;-82
2023/08/20 11:38:15;;;;;;;8.43;5.32;;;29.10;99.90;;;;;;5000135;28;20046;-83
2023/08/20 11:40:42;;;;;;;11.82;4.60;;;29.00;99.90;;;;;;4999619;28;20046;-82
2023/08/20 11:43:09;;;;;;;7.53;4.25;;;29.10;99.90;;;;;;4994952;28;20054;-82
2023/08/20 11:45:44;;;;;;;6.95;4.50;;;29.10;99.90;;;;;;4997725;28;20568;-82
2023/08/20 11:48:11;;;;;;;7.97;4.03;;;29.10;99.90;;;;;;4989330;28;20058;-83
2023/08/20 11:50:38;;;;;;;8.02;4.57;;;29.10;99.90;;;;;;5006390;28;20050;-83
2023/08/20 11:53:05;;;;;;;9.98;5.22;;;29.20;99.90;;;;;;5003001;28;20418;-82
2023/08/20 11:55:31;;;;;;;5.55;4.95;;;29.20;99.90;;;;;;5006131;28;20046;-82
2023/08/20 11:57:58;;;;;;;13.60;5.70;;;29.30;99.90;;;;;;5001213;28;20043;-82
2023/08/20 12:00:31;;;;;;;9.15;5.60;;;29.40;99.90;;;;;;5003821;28;20042;-83
2023/08/20 12:02:58;;;;;;;10.10;5.63;;;29.40;99.90;;;;;;4997049;28;20046;-82
2023/08/20 12:05:28;;;;;;;6.55;5.20;;;29.40;99.90;;;;;;5008982;28;20070;-82
2023/08/20 12:07:57;;;;;;;5.45;4.65;;;29.40;99.90;;;;;;5007827;28;20128;-83
2023/08/20 12:10:26;;;;;;;8.95;4.40;;;29.50;99.90;;;;;;5003906;28;20078;-83
2023/08/20 12:12:54;;;;;;;6.50;4.43;;;29.50;99.90;;;;;;5002438;28;20102;-83
2023/08/20 12:15:21;;;;;;;6.20;4.35;;;29.70;99.90;;;;;;5002983;28;20054;-84
2023/08/20 12:18:01;;;;;;;8.95;4.28;;;29.70;99.90;;;;;;4998452;28;20133;-83
2023/08/20 12:20:29;;;;;;;;;;;29.80;99.90;;;;;;5010021;28;20050;-83
2023/08/20 12:22:59;;;;;;;7.00;4.28;;;29.70;99.90;;;;;;5008073;28;19953;-83
2023/08/20 12:25:26;;;;;;;6.22;4.25;;;29.80;99.90;;;;;;5000756;28;20094;-83
2023/08/20 12:27:53;;;;;;;7.28;4.75;;;29.80;99.90;;;;;;4995878;28;20070;-82
2023/08/20 12:30:20;;;;;;;6.97;4.43;;;29.80;99.90;;;;;;4998720;28;20203;-83
2023/08/20 12:32:47;;;;;;;7.53;4.18;;;29.90;99.90;;;;;;4995664;28;20053;-83
2023/08/20 12:35:14;;;;;;;7.78;3.88;;;29.90;99.90;;;;;;5003583;28;20519;-83
2023/08/20 12:37:40;;;;;;;5.07;4.00;;;29.90;99.90;;;;;;5004148;28;20058;-83
2023/08/20 12:40:10;;;;;;;10.38;3.97;;;30.00;99.90;;;;;;5014045;28;20105;-82
2023/08/20 12:42:38;;;;;;;7.78;4.28;;;30.10;99.90;;;;;;4998395;28;20051;-83
2023/08/20 12:45:08;;;;;;;9.68;4.28;;;30.10;99.90;;;;;;4999828;28;20046;-83
2023/08/20 12:47:34;;;;;;;7.63;3.88;;;30.10;99.90;;;;;;4995096;28;20050;-83
2023/08/20 12:50:04;;;;;;;8.52;3.95;;;30.10;99.90;;;;;;5004383;28;20070;-83
2023/08/20 12:52:32;;;;;;;8.80;4.60;;;30.10;99.90;;;;;;5004054;28;20689;-83